Terminal Aerodrome Forecast
Issued by NWS

Home | Current Version | Previous Version | Text Only | Print | Product List | Glossary On
Versions: 1 2 3 4 5 6 7 8 9 10 11 12 13 14 15 16 17 18 19 20 21 22 23 24 25 26 27
000
FTUS41 KBTV 100522
TAFSLK
TAF
KSLK 100522Z 1006/1106 VRB03KT P6SM VCSH OVC035
      TEMPO 1006/1010 5SM -SN BKN025
     FM101200 VRB03KT P6SM BKN040
     FM110000 24004KT P6SM BKN035=

USA.gov is the U.S. government's official web portal to all federal, state and local government web resources and services.